createdAt,value
2023-05-10T00:01:42.498Z,101689.03
2023-05-10T00:06:46.098Z,101685.44
2023-05-10T00:11:48.504Z,101679.41
2023-05-10T00:16:50.753Z,101666.19
2023-05-10T00:21:53.051Z,101660.97
2023-05-10T00:26:55.169Z,101645.59
2023-05-10T00:31:57.408Z,101658.69
2023-05-10T00:36:59.554Z,101656.59
2023-05-10T00:42:05.594Z,101646.16
2023-05-10T00:47:09.005Z,101652.28
2023-05-10T00:52:11.229Z,101639.03
2023-05-10T00:57:13.297Z,101640.16
2023-05-10T01:05:13.803Z,101635.25
2023-05-10T01:10:15.977Z,101627.25
2023-05-10T01:15:19.102Z,101629.28
2023-05-10T01:25:55.737Z,101619.50
2023-05-10T01:31:24.770Z,101614.06
2023-05-10T01:36:40.522Z,101609.44
2023-05-10T01:42:06.723Z,101621.38
2023-05-10T01:47:11.115Z,101612.59
2023-05-10T01:52:22.504Z,101612.88
2023-05-10T01:57:28.998Z,101607.66
2023-05-10T02:02:37.845Z,101614.81
2023-05-10T02:07:43.795Z,101623.41
2023-05-10T02:12:49.570Z,101624.22
2023-05-10T02:17:55.657Z,101624.22
2023-05-10T02:22:59.611Z,101602.72
2023-05-10T02:28:05.622Z,101601.38
2023-05-10T02:33:09.036Z,101589.81
2023-05-10T02:38:13.653Z,101593.47
2023-05-10T02:43:17.522Z,101593.25
2023-05-10T02:48:19.506Z,101589.13
2023-05-10T02:53:24.632Z,101586.75
2023-05-10T02:58:27.647Z,101585.13
2023-05-10T03:03:29.793Z,101587.03
2023-05-10T03:08:32.504Z,101577.66
2023-05-10T03:13:45.524Z,101582.56
2023-05-10T03:19:02.829Z,101589.13
2023-05-10T03:24:10.108Z,101593.25
2023-05-10T03:29:15.357Z,101572.81
2023-05-10T03:34:18.462Z,101554.31
2023-05-10T03:39:22.324Z,101559.84
2023-05-10T03:44:29.296Z,101572.00
2023-05-10T03:49:31.485Z,101568.13
2023-05-10T03:54:33.777Z,101561.78
2023-05-10T03:59:35.993Z,101555.44
2023-05-10T04:04:38.338Z,101555.66
2023-05-10T04:09:41.930Z,101558.94
2023-05-10T04:16:20.152Z,101557.53
2023-05-10T04:21:22.254Z,101548.13
2023-05-10T04:26:26.119Z,101537.59
2023-05-10T04:32:46.710Z,101554.47
2023-05-10T04:37:51.827Z,101552.84
2023-05-10T04:42:53.792Z,101580.72
2023-05-10T04:47:56.153Z,101578.88
2023-05-10T04:52:58.392Z,101564.19
2023-05-10T04:58:00.461Z,101563.50
2023-05-10T05:03:02.535Z,101558.63
2023-05-10T05:08:04.980Z,101563.06
2023-05-10T05:13:07.358Z,101558.97
2023-05-10T05:18:09.540Z,101565.06
2023-05-10T05:23:11.573Z,101570.91
2023-05-10T05:28:13.526Z,101572.31
2023-05-10T05:33:16.494Z,101574.84
2023-05-10T05:38:18.641Z,101578.41
2023-05-10T05:43:20.672Z,101587.78
2023-05-10T05:48:22.828Z,101584.50
2023-05-10T05:53:25.031Z,101584.22
2023-05-10T05:58:27.167Z,101583.91
2023-05-10T06:03:29.397Z,101585.00
2023-05-10T06:08:31.375Z,101586.06
2023-05-10T06:13:34.496Z,101585.50
2023-05-10T06:18:37.032Z,101582.94
2023-05-10T06:23:39.090Z,101575.50
2023-05-10T06:28:41.879Z,101573.81
2023-05-10T06:33:43.865Z,101571.00
2023-05-10T06:38:45.919Z,101562.91
2023-05-10T06:43:48.214Z,101573.53
2023-05-10T06:48:50.238Z,101572.56
2023-05-10T06:53:52.114Z,101573.41
2023-05-10T06:58:54.371Z,101573.94
2023-05-10T07:03:56.509Z,101568.56
2023-05-10T07:08:58.723Z,101558.63
2023-05-10T07:14:00.808Z,101559.97
2023-05-10T07:22:46.355Z,101571.19
2023-05-10T07:28:17.403Z,101566.66
2023-05-10T07:33:19.710Z,101565.63
2023-05-10T07:38:22.030Z,101572.56
2023-05-10T07:43:24.171Z,101585.72
2023-05-10T07:48:26.501Z,101588.56
2023-05-10T07:53:28.688Z,101587.78
2023-05-10T07:58:31.184Z,101588.00
2023-05-10T08:03:33.260Z,101588.41
2023-05-10T08:08:35.350Z,101597.84
2023-05-10T08:13:37.416Z,101589.25
2023-05-10T08:18:40.581Z,101586.84
2023-05-10T08:23:50.156Z,101578.47
2023-05-10T08:28:52.167Z,101592.72
2023-05-10T08:33:54.263Z,101584.63
2023-05-10T08:38:56.214Z,101591.59
2023-05-10T08:43:58.731Z,101583.16
2023-05-10T08:49:09.983Z,101584.03
2023-05-10T08:54:12.150Z,101590.25
2023-05-10T08:59:15.293Z,101584.03
2023-05-10T09:04:17.500Z,101588.84
2023-05-10T09:09:21.646Z,101592.59
2023-05-10T09:14:26.025Z,101586.38
2023-05-10T09:19:29.277Z,101589.75
2023-05-10T09:24:38.894Z,101596.34
2023-05-10T09:29:42.567Z,101589.16
2023-05-10T09:34:45.996Z,101578.25
2023-05-10T09:39:48.020Z,101578.47
2023-05-10T09:44:50.056Z,101576.84
2023-05-10T09:49:53.706Z,101581.56
2023-05-10T09:54:56.072Z,101566.72
2023-05-10T10:00:01.520Z,101574.88
2023-05-10T10:05:05.005Z,101569.63
2023-05-10T10:10:13.315Z,101566.38
2023-05-10T10:15:16.935Z,101572.41
2023-05-10T10:20:20.926Z,101576.00
2023-05-10T10:25:23.454Z,101577.59
2023-05-10T10:30:38.069Z,101570.72
2023-05-10T10:35:40.453Z,101560.69
2023-05-10T10:40:46.664Z,101568.34
2023-05-10T10:46:15.007Z,101574.47
2023-05-10T10:51:18.555Z,101570.00
2023-05-10T10:56:24.713Z,101559.47
2023-05-10T11:01:34.315Z,101567.75
2023-05-10T11:06:37.153Z,101572.16
2023-05-10T11:12:01.602Z,101574.34
2023-05-10T11:17:28.882Z,101581.25
2023-05-10T11:22:52.882Z,101586.44
2023-05-10T11:28:20.772Z,101587.72
2023-05-10T11:33:22.848Z,101576.34
2023-05-10T11:38:24.912Z,101585.44
2023-05-10T11:43:31.530Z,101590.03
2023-05-10T11:48:34.358Z,101586.44
2023-05-10T11:53:36.443Z,101576.41
2023-05-10T11:58:39.777Z,101576.31
2023-05-10T12:03:42.142Z,101602.88
2023-05-10T12:08:49.145Z,101569.38
2023-05-10T12:13:51.589Z,101574.88
2023-05-10T12:18:58.510Z,101578.38
2023-05-10T12:24:03.433Z,101558.91
2023-05-10T12:29:15.371Z,101566.38
2023-05-10T12:34:32.816Z,101580.00
2023-05-10T12:39:45.736Z,101560.34
2023-05-10T12:44:47.838Z,101562.91
2023-05-10T12:49:50.174Z,101556.03
2023-05-10T12:54:53.715Z,101559.53
2023-05-10T12:59:56.160Z,101556.22
2023-05-10T13:04:58.236Z,101546.72
2023-05-10T13:10:00.562Z,101546.03
2023-05-10T13:15:04.119Z,101542.13
2023-05-10T13:20:06.843Z,101547.03
2023-05-10T13:25:09.674Z,101544.78
2023-05-10T13:30:12.597Z,101547.66
2023-05-10T13:35:14.711Z,101548.06
2023-05-10T13:40:17.225Z,101554.00
2023-05-10T13:50:21.584Z,101567.72
2023-05-10T13:55:23.764Z,101551.75
2023-05-10T14:00:25.817Z,101557.16
2023-05-10T14:05:32.131Z,101545.59
2023-05-10T14:10:34.326Z,101548.66
2023-05-10T14:15:36.303Z,101542.94
2023-05-10T14:20:38.560Z,101544.28
2023-05-10T14:25:41.922Z,101528.72
2023-05-10T14:30:44.158Z,101539.00
2023-05-10T14:35:47.850Z,101534.50
2023-05-10T14:40:50.463Z,101533.31
2023-05-10T14:45:55.083Z,101528.34
2023-05-10T14:50:57.221Z,101522.44
2023-05-10T14:56:01.344Z,101539.66
2023-05-10T15:01:03.776Z,101527.84
2023-05-10T15:06:06.734Z,101522.41
2023-05-10T15:11:08.963Z,101517.69
2023-05-10T15:16:11.868Z,101517.91
2023-05-10T15:22:46.601Z,101520.38
2023-05-10T15:27:48.880Z,101529.59
2023-05-10T15:32:51.148Z,101518.16
2023-05-10T15:37:53.496Z,101520.19
2023-05-10T15:42:55.736Z,101516.28
2023-05-10T15:47:59.275Z,101522.16
2023-05-10T15:53:01.467Z,101526.75
2023-05-10T15:58:05.965Z,101518.75
2023-05-10T16:03:08.391Z,101516.50
2023-05-10T16:08:10.538Z,101526.13
2023-05-10T16:13:12.554Z,101522.84
2023-05-10T16:18:14.799Z,101516.31
2023-05-10T16:23:17.632Z,101517.16
2023-05-10T16:28:21.281Z,101522.66
2023-05-10T16:33:23.454Z,101517.16
2023-05-10T16:38:26.830Z,101520.63
2023-05-10T16:43:28.680Z,101517.34
2023-05-10T16:48:30.781Z,101521.13
2023-05-10T16:53:32.909Z,101520.00
2023-05-10T16:58:43.900Z,101511.81
2023-05-10T17:03:46.511Z,101515.50
2023-05-10T17:08:48.666Z,101519.50
2023-05-10T17:13:52.401Z,101517.50
2023-05-10T17:18:54.282Z,101521.59
2023-05-10T17:23:56.293Z,101528.75
2023-05-10T17:28:58.833Z,101531.63
2023-05-10T17:34:02.191Z,101522.41
2023-05-10T17:39:06.359Z,101532.22
2023-05-10T17:44:08.344Z,101520.84
2023-05-10T17:49:10.636Z,101536.00
2023-05-10T17:54:12.628Z,101542.75
2023-05-10T17:59:14.569Z,101546.72
2023-05-10T18:04:16.853Z,101546.94
2023-05-10T18:09:21.193Z,101553.94
2023-05-10T18:14:36.461Z,101549.94
2023-05-10T18:19:42.766Z,101552.59
2023-05-10T18:24:45.102Z,101572.06
2023-05-10T18:29:47.390Z,101581.22
2023-05-10T18:34:49.544Z,101574.38
2023-05-10T18:39:51.908Z,101586.31
2023-05-10T18:44:54.991Z,101578.38
2023-05-10T18:49:57.351Z,101588.91
2023-05-10T18:54:59.391Z,101592.78
2023-05-10T19:00:01.447Z,101602.47
2023-05-10T19:05:03.588Z,101603.06
2023-05-10T19:10:07.465Z,101610.53
2023-05-10T19:15:10.506Z,101608.66
2023-05-10T19:20:12.477Z,101618.81
2023-05-10T19:25:16.931Z,101617.16
2023-05-10T19:30:19.093Z,101632.88
2023-05-10T19:35:21.011Z,101631.59
2023-05-10T19:43:17.937Z,101653.38
2023-05-10T19:48:23.686Z,101650.06
2023-05-10T19:53:25.642Z,101650.66
2023-05-10T19:58:28.919Z,101659.16
2023-05-10T20:03:30.949Z,101676.53
2023-05-10T20:08:35.409Z,101679.63
2023-05-10T20:13:37.480Z,101662.03
2023-05-10T20:22:53.104Z,101668.56
2023-05-10T20:28:06.251Z,101670.25
2023-05-10T20:33:09.392Z,101673.81
2023-05-10T20:38:11.503Z,101670.00
2023-05-10T20:43:13.313Z,101679.69
2023-05-10T20:48:15.668Z,101684.94
2023-05-10T20:53:25.983Z,101689.16
2023-05-10T20:58:28.228Z,101679.47
2023-05-10T21:03:30.232Z,101679.00
2023-05-10T21:08:32.160Z,101682.31
2023-05-10T21:13:34.034Z,101682.31
2023-05-10T21:18:39.114Z,101680.16
2023-05-10T21:23:46.449Z,101685.66
2023-05-10T21:28:48.621Z,101680.16
2023-05-10T21:33:50.921Z,101671.88
2023-05-10T21:38:52.904Z,101675.19
2023-05-10T21:43:54.865Z,101676.28
2023-05-10T21:48:57.410Z,101669.41
2023-05-10T21:53:59.635Z,101674.41
2023-05-10T21:59:04.954Z,101669.75
2023-05-10T22:04:07.029Z,101675.25
2023-05-10T22:09:10.107Z,101665.88
2023-05-10T22:14:12.249Z,101657.34
2023-05-10T22:19:14.063Z,101663.41
2023-05-10T22:35:16.603Z,101671.41
2023-05-10T22:41:14.756Z,101661.44
2023-05-10T22:46:16.875Z,101670.72
2023-05-10T22:51:19.019Z,101663.59
2023-05-10T22:56:22.718Z,101655.84
2023-05-10T23:01:24.985Z,101652.28
2023-05-10T23:06:28.246Z,101646.97
2023-05-10T23:11:30.234Z,101650.72
2023-05-10T23:16:32.316Z,101645.97
2023-05-10T23:21:34.588Z,101628.34
2023-05-10T23:26:36.710Z,101630.25
2023-05-10T23:31:41.127Z,101623.34
2023-05-10T23:36:43.449Z,101614.78
2023-05-10T23:41:45.663Z,101608.63
2023-05-10T23:46:48.771Z,101600.28
2023-05-10T23:51:50.793Z,101583.38
2023-05-10T23:56:52.920Z,101565.97
